Timeline UpdatesTrip UpdatesNews PostsPvt Posts♥♥Travel TipsAdmin PostsConv PostsFollowed PostsChat RequestsBlog PostsPNR Posts

Disclaimer
Search
 
 
Sun Dec 21, 2014 01:39:43 ISTHomeTrainsΣChainsAtlasPNRForumGalleryNewsFAQTripsMembersLoginFeedback
No Recent News for this Train
Other Trains in the News **new
Latest...
Temporary Stop at Vindhyachal (BDL) for 2 minutes from 25/9/14-6/10/14 #1223333.
Wed Sep 24, 2014 (11:33PM)
⇐ Return Journey: Train# 15648

15647/Mumbai LTT-Guwahati Weekly Express

Time-Table HAS CHANGED.
Sep 24 2014 (11:33PM)
Change Departure Station:
Change Arrival Station:
Post a Train Travel TipPost a Train Travel Tip **new
Post a Comment/Question/Picture/VideoPost a Comment/Question/Picture/Video
Pantry/Catering
✓ Pantry Car Avbl
✓ Catering Avbl
RSA - Rake Sharing
Rake/Coach Composition
2A-1; 3A-3; SL-12; GEN-3; PC-1; SLR-2 :: 22 COACH
Loco
ET-GHY =>ET WDMx
News    PNR    Forum    Time-Table    Availability    Fare Chart    Map    Arr/Dep History    Trips    Gallery    ΣChains    X/O    Timeline    
Travel Time: 31h 5m    37 halts    Distance: 1402 km    Avg Speed: 45 km/hr
Type: Mail/Express
Zone: NFR/Northeast Frontier
Departs @ 05:55 (Avg 22m late)
Platform# ???
      S
Chheoki Junction/COI 
Arrives @ 13:00 +1 night (Avg 1h 10m late)
Platform# ???
S      
Guwahati/GHY 

37 halts. 259 intermediate Stations between Chheoki Junction and Guwahati

Show ALL intermediate Stations  Show Old Time-Table

#TrkCodeStation NameX/OArrivesAvgDepartsAvgHaltPFDay#KmSpeedElevZoneAddress
1/==/LTTMumbai Lokmanya Tilak Terminus (5)  -08:05+051-1337.1737mCRMumbai - 400089, Maharashtra
2/==/KYNKalyan Junction (8)X  08:35+1908:40+185m41-1300.44710mCRKalyan 421301, Maharashtra
3/==/IGPIgatpuri (4)X10:35 10:25+810:40 10:30+135m21-1218.671589mCRIgatpuri 422403, Maharashtra
4/==/DVLDevlali (3)X  11:08+1911:10+202m11-1173.723561mCRDist. Nashik 422401, Maharashtra
5/==/NKNasik Road (3)  11:28 11:25+1211:30+112 5m11-1167.997563mCRNashik 422101, Maharashtra
6/==/MMRManmad Junction (6)  12:25 12:15+2012:30 12:20+195m11-1095.285580mCRManmad 423104, Maharashtra
7/==/BSLBhusaval Junction (8)X  14:45 14:30+2514:55 14:40+3510m--1-911.076208mCRBhusaval 425201, Maharashtra
8/==/BAUBurhanpur (2)  15:38 15:23+5415:40 15:25+542m21-856.534269mCRBurhanpur, Madhya Pradesh
9/==/KNWKhandwa Junction (5)  17:35 17:25+017:40 17:30+25m--1-787.695310mCRKhandwa, Madhya Pradesh
10/==/HDHarda (3)  18:38+1218:40+122m--1-680.057289mWCRHarda, Madhya Pradesh
11/==/ETItarsi Junction (7)X20:00-320:10+1010m--1-604.272329mWCRItarsi 461111, Madhya Pradesh
12|==|PPIPipariya (3)  21:06+3021:08+302m--1-536.981339mWCRPiparia, Madhya Pradesh
13|==|JBPJabalpur Junction (4)X  23:20+3723:30+3910m41-359.278416mWCRJabalpur, Madhya Pradesh
14|==%KTEKatni Junction (6)X  00:40+4900:45+505m--2-268.374387mWCRKatni, Madhya Pradesh
15%==%STASatna Junction (3)XO  02:10 02:05+4002:20 02:15+3810m--2-170.047322mWCRSatna, Madhya Pradesh
16|==|COIChheoki Junction (3)»  06:05 05:50+1906:10 05:55+225m--20.08096mNCRDist.-Allahabad, Uttar Pradesh
17/==/MZPMirzapur (3)X  07:10 06:55+4507:15 07:00+465m--280.43388mNCRMirzapur, Uttar Pradesh
18/==/MGSMughal Sarai Junction (8)  08:55+1709:10+1815m--2143.67583mECRDistt: Chandauli Pin 232101, Uttar Pradesh
19/==/DLNDildarnagar Junction (2)X  09:56+2609:58+262m--2201.38072mECRDildarnagar, Uttar Pradesh
20/==/BXRBuxar (3)  10:25+2810:27+402m--2237.58967mECRBuxar, Bihar
21/==/DUREDumraon (3)  10:38+4810:40+532m--2253.98970mECRDumraon, Bihar
22/==/ARAAra Junction (3)  11:19 11:15+1:3611:21 11:17+1:362m--2306.07963mECRDistt: Bhojpur Ph 06182-233411, Bihar
23/==/DNRDanapur (5)X  11:47+1:5011:57+1:5310m--2345.61158mECRKhagaul, Bihar
24/==/PNBEPatna Junction (10)X  12:50+1:1413:00+1:1510m82355.03557mECRPatna 800001, Bihar
25/==/PNCPatna Saheb (3)  13:17+1:5613:19+1:562m--2364.84359mECRPatna 800008, Bihar
26/==/FUTFatwa (6)  13:36+1:3413:38+1:352m--2377.16353mECRPatna, Bihar
27/==/KOOKhusropur (2)  13:46+1:5813:48+1:592m--2385.56452mECRPatna, Bihar
28/==/BKPBakhtiyarpur Junction (5)  14:02+2:0114:04+2:012m--2400.36051mECRPatna, Bihar
29/==/BARHBarh (3)  14:22+2:0614:24+2:072m--2418.54349mECRBarh, Bihar
30/==/MKAMokama Junction (4)X  15:00+1:5615:05+1:545m--2444.25648mECRPatna, Bihar
31/==/HTZHathidah Junction (2)  15:14+1:5815:16+1:582m12452.66350mECRMusahari, Bihar
32/==/BRYABarhiya (3)  15:25+2:0015:27+2:002m--2462.03547mECRBarahiya, Bihar
33/==/LKRLuckeesarai Junction (2)  15:53+2:0715:55+2:072m--2477.0852mECRLakhisarai, Bihar
34/==/KIULKiul Junction (5)X  16:05+1:0616:12+1:057m--2478.45153mECRDist. Lakhisarai, Bihar
35|==|AHAAbhaipur (3)  16:39+1:5416:41+1:542m--2501.44252mERAbhaipur, Bihar
36|=-|JMPJamalpur Junction (4)X  17:12+1:2917:27+1:2415m--2523.26159mERDist: Munger 06344-243101, Bihar
37|==|BUPBariarpur (3)  17:38+2:0717:40+2:072m--2534.45442mERMunger, Bihar
38|==|SGGSultanGanj (3)  18:00+2:3218:02+2:322m--2552.34542mERSultanganj, Bihar
39|==!BGPBhagalpur Junction (6)  18:35+1:1318:50+1:1115m--2577.36949mERBhagalpur, Bihar
40!==!CLGKahalgaon (2)X  19:16+2:3519:18+2:352m12607.33944mERBhagalpur, Bihar
41!==!SBGSahibganj Junction (3)  20:25+2:2420:35+2:2010m12651.24538mERSahibganj, Jharkhand
42|==|BHWBarharwa Junction (3)  21:48+3:0521:50+3:082m22705.74036mERBarharwa, Jharkhand
43%==%NFKNew Farakka Junction (3)  22:17+2:0522:19+2:052m22723.73532mERDist - Murshidabad, West Bengal
44%==%MLDTMalda Town (5)X  23:20+1:2623:35+1:2515m--2758.77430mERDist - Malda, West Bengal
45%==%KNEKishanGanj (3)  01:35+2:0601:40+2:065m--3906.95052mNFRKishanganj, Bihar
46%==|NJPNew Jalpaiguri Junction (8)X  03:25+3803:40+3815m--3994.252114mNFRCity-Siliguri . Dist-Jalpaiguri, West Bengal
47|--|DQGDhupguri (2)  05:00 04:55+4:2505:05 05:00+4:305m--31059.66075mNFRDist - Jalpaiguri, West Bengal
48!==!NCBNew Cooch Behar Junction (5)  06:05 06:00+1:4606:10 06:05+1:465m--31119.75647mNFRDist : Cooch Behar-736101, West Bengal
49!==!NOQNew Alipurduar (2)O  06:35 06:25+4:4006:40 06:30+4:405m--31138.44948mNFRDist - Alipurduar - 736121, West Bengal
50|=-|NBQNew Bongaigaon Junction (4)  08:40+2:1308:50+2:1310m--31245.14658mNFR783381., Assam
51|--|BPRDBarpeta Road (2)  09:52 09:47+3:5309:57 09:52+3:525m--31289.24749mNFRHowli, Assam
52|--|RNYRangiya Junction (5)  11:15+3:4111:25+3:3510m--31354.03858mNFRRangia, Assam
53|-=|KYQKamakhya Junction (4)  12:30+3:5812:35+4:245m--31394.71755mNFRDist - KAMRUP, Assam
54|==|GHYGuwahati (7)•  13:00+1:10---31401.7-60mNFRGuwahati, Assam
Scroll to Top
Scroll to Bottom


Go to Mobile site